createdAt,value
2022-09-11T00:02:05.486Z,87.69
2022-09-11T00:07:07.122Z,88.18
2022-09-11T00:12:08.759Z,88.22
2022-09-11T00:17:10.422Z,89.06
2022-09-11T00:22:12.138Z,88.42
2022-09-11T00:27:13.894Z,88.39
2022-09-11T00:32:16.488Z,88.54
2022-09-11T00:37:18.071Z,88.16
2022-09-11T00:42:19.714Z,88.04
2022-09-11T00:47:21.375Z,87.67
2022-09-11T00:52:38.738Z,87.79
2022-09-11T00:57:46.953Z,86.98
2022-09-11T01:02:51.808Z,86.65
2022-09-11T01:07:55.124Z,87.05
2022-09-11T01:13:12.980Z,87.22
2022-09-11T01:18:17.124Z,86.91
2022-09-11T01:23:50.838Z,87.04
2022-09-11T01:29:03.679Z,87.37
2022-09-11T01:34:26.957Z,87.32
2022-09-11T01:39:37.423Z,87.62
2022-09-11T01:44:46.304Z,87.75
2022-09-11T01:50:03.130Z,87.93
2022-09-11T01:55:15.550Z,87.74
2022-09-11T02:00:17.742Z,88.20
2022-09-11T02:05:33.638Z,87.96
2022-09-11T02:10:41.059Z,87.87
2022-09-11T02:15:48.679Z,87.46
2022-09-11T02:20:52.815Z,87.16
2022-09-11T02:25:54.464Z,86.72
2022-09-11T02:30:58.382Z,86.72
2022-09-11T02:36:32.478Z,87.36
2022-09-11T02:41:57.099Z,87.04
2022-09-11T02:47:16.172Z,86.73
2022-09-11T02:52:37.329Z,86.57
2022-09-11T02:57:51.092Z,86.42
2022-09-11T03:02:53.949Z,86.78
2022-09-11T03:07:56.230Z,86.74
2022-09-11T03:12:59.734Z,86.77
2022-09-11T03:18:02.840Z,86.83
2022-09-11T03:23:09.169Z,87.06
2022-09-11T03:28:11.087Z,86.95
2022-09-11T03:33:13.717Z,86.91
2022-09-11T03:38:15.976Z,86.74
2022-09-11T03:43:17.945Z,86.80
2022-09-11T03:48:19.698Z,86.41
2022-09-11T03:53:22.015Z,86.64
2022-09-11T03:58:23.814Z,86.96
2022-09-11T04:03:25.835Z,87.18
2022-09-11T04:08:27.714Z,87.02
2022-09-11T04:13:34.144Z,87.09
2022-09-11T04:18:39.923Z,86.49
2022-09-11T04:23:42.281Z,85.98
2022-09-11T04:28:46.024Z,86.50
2022-09-11T04:33:49.243Z,86.81
2022-09-11T04:38:55.985Z,86.53
2022-09-11T04:44:04.702Z,86.81
2022-09-11T04:49:09.325Z,86.85
2022-09-11T04:54:18.659Z,86.80
2022-09-11T04:59:22.913Z,86.52
2022-09-11T05:04:31.388Z,87.05
2022-09-11T05:09:36.010Z,86.42
2022-09-11T05:14:39.073Z,86.96
2022-09-11T05:19:41.172Z,86.55
2022-09-11T05:24:43.226Z,86.91
2022-09-11T05:29:44.933Z,87.25
2022-09-11T05:34:49.930Z,87.03
2022-09-11T05:39:54.960Z,87.85
2022-09-11T05:44:58.695Z,88.19
2022-09-11T05:50:08.989Z,88.51
2022-09-11T05:55:11.128Z,88.37
2022-09-11T06:00:23.480Z,89.27
2022-09-11T06:05:25.107Z,89.20
2022-09-11T06:10:29.896Z,89.12
2022-09-11T06:15:46.275Z,89.73
2022-09-11T06:21:00.331Z,90.32
2022-09-11T06:26:11.817Z,90.33
2022-09-11T06:31:19.210Z,90.56
2022-09-11T06:36:26.807Z,91.11
2022-09-11T06:41:30.835Z,91.80
2022-09-11T06:46:38.649Z,91.84
2022-09-11T06:51:43.758Z,92.38
2022-09-11T06:56:51.900Z,93.07
2022-09-11T07:01:54.853Z,93.06
2022-09-11T07:06:57.160Z,93.81
2022-09-11T07:11:59.421Z,93.63
2022-09-11T07:17:03.192Z,92.59
2022-09-11T07:22:04.997Z,91.90
2022-09-11T07:27:08.633Z,90.12
2022-09-11T07:32:11.451Z,89.19
2022-09-11T07:37:14.607Z,88.61
2022-09-11T07:42:16.433Z,87.39
2022-09-11T07:47:18.943Z,87.20
2022-09-11T07:52:24.611Z,85.49
2022-09-11T07:57:30.908Z,84.79
2022-09-11T08:02:34.099Z,83.94
2022-09-11T08:07:36.410Z,82.71
2022-09-11T08:12:40.030Z,82.69
2022-09-11T08:17:41.834Z,80.94
2022-09-11T08:22:44.696Z,81.47
2022-09-11T08:27:46.451Z,80.42
2022-09-11T08:32:51.506Z,77.35
2022-09-11T08:37:55.136Z,76.13
2022-09-11T08:43:02.838Z,74.92
2022-09-11T08:48:07.065Z,74.18
2022-09-11T08:53:17.574Z,73.19
2022-09-11T08:58:34.611Z,71.26
2022-09-11T09:04:18.404Z,71.55
2022-09-11T09:09:58.086Z,71.50
2022-09-11T09:15:29.367Z,70.66
2022-09-11T09:20:43.516Z,71.48
2022-09-11T09:25:46.613Z,68.50
2022-09-11T09:30:53.521Z,66.94
2022-09-11T09:35:55.585Z,69.45
2022-09-11T09:41:36.353Z,69.46
2022-09-11T09:46:45.518Z,69.51
2022-09-11T09:51:51.843Z,67.82
2022-09-11T09:56:58.939Z,66.18
2022-09-11T10:02:00.837Z,67.26
2022-09-11T10:07:17.859Z,66.77
2022-09-11T10:12:22.802Z,67.33
2022-09-11T10:17:32.920Z,67.74
2022-09-11T10:22:35.533Z,68.98
2022-09-11T10:27:56.397Z,69.75
2022-09-11T10:33:03.314Z,69.07
2022-09-11T10:38:18.064Z,68.96
2022-09-11T10:43:25.510Z,69.38
2022-09-11T10:48:27.198Z,70.07
2022-09-11T10:53:31.098Z,69.63
2022-09-11T10:58:40.590Z,69.51
2022-09-11T11:03:42.127Z,70.39
2022-09-11T11:09:02.381Z,70.24
2022-09-11T11:14:27.314Z,69.71
2022-09-11T11:19:47.386Z,69.19
2022-09-11T11:25:16.031Z,67.22
2022-09-11T11:30:25.225Z,66.85
2022-09-11T11:36:03.902Z,66.80
2022-09-11T11:41:23.946Z,65.41
2022-09-11T11:46:49.243Z,63.43
2022-09-11T11:51:50.852Z,63.76
2022-09-11T11:56:55.800Z,64.86
2022-09-11T12:02:30.685Z,65.61
2022-09-11T12:07:34.847Z,64.92
2022-09-11T12:12:52.933Z,65.43
2022-09-11T12:18:00.800Z,65.20
2022-09-11T12:23:02.842Z,65.02
2022-09-11T12:28:23.499Z,65.68
2022-09-11T12:33:41.042Z,66.77
2022-09-11T12:38:49.148Z,67.38
2022-09-11T12:43:51.423Z,66.27
2022-09-11T12:49:11.665Z,65.53
2022-09-11T12:54:23.954Z,65.74
2022-09-11T12:59:29.491Z,65.88
2022-09-11T13:04:32.388Z,66.74
2022-09-11T13:09:49.338Z,67.52
2022-09-11T13:14:57.983Z,68.46
2022-09-11T13:20:05.349Z,68.74
2022-09-11T13:25:12.273Z,69.02
2022-09-11T13:30:19.445Z,68.67
2022-09-11T13:35:27.096Z,68.47
2022-09-11T13:40:36.028Z,68.71
2022-09-11T13:45:38.035Z,66.86
2022-09-11T13:50:39.861Z,67.56
2022-09-11T13:55:46.627Z,64.76
2022-09-11T14:00:51.171Z,64.46
2022-09-11T14:05:55.715Z,63.43
2022-09-11T14:11:01.296Z,62.34
2022-09-11T14:16:12.593Z,61.58
2022-09-11T14:21:36.783Z,62.10
2022-09-11T14:26:41.872Z,62.40
2022-09-11T14:31:44.227Z,60.89
2022-09-11T14:37:09.954Z,60.58
2022-09-11T14:42:23.313Z,58.84
2022-09-11T14:47:27.978Z,58.82
2022-09-11T14:52:30.920Z,57.19
2022-09-11T14:57:34.811Z,57.14
2022-09-11T15:02:36.623Z,56.67
2022-09-11T15:07:38.286Z,55.88
2022-09-11T15:12:39.953Z,55.75
2022-09-11T15:17:46.612Z,56.75
2022-09-11T15:23:02.731Z,56.69
2022-09-11T15:28:11.139Z,56.53
2022-09-11T15:33:21.979Z,56.43
2022-09-11T15:38:27.504Z,56.82
2022-09-11T15:43:36.833Z,56.21
2022-09-11T15:48:40.949Z,57.88
2022-09-11T15:53:44.754Z,57.29
2022-09-11T15:59:01.528Z,57.98
2022-09-11T16:04:09.062Z,58.56
2022-09-11T16:09:16.943Z,58.55
2022-09-11T16:14:31.110Z,57.92
2022-09-11T16:19:34.433Z,57.36
2022-09-11T16:24:37.797Z,57.81
2022-09-11T16:35:08.547Z,57.24
2022-09-11T16:40:10.499Z,58.61
2022-09-11T16:45:12.277Z,59.04
2022-09-11T16:50:14.569Z,58.39
2022-09-11T16:55:16.244Z,57.77
2022-09-11T17:00:18.032Z,58.91
2022-09-11T17:05:19.640Z,58.81
2022-09-11T17:10:21.878Z,59.73
2022-09-11T17:15:25.486Z,59.48
2022-09-11T17:20:27.264Z,59.28
2022-09-11T17:25:36.960Z,60.93
2022-09-11T17:30:39.579Z,60.92
2022-09-11T17:35:42.255Z,60.57
2022-09-11T17:40:43.886Z,61.17
2022-09-11T17:45:45.608Z,62.46
2022-09-11T17:50:48.764Z,62.53
2022-09-11T17:55:50.386Z,62.73
2022-09-11T18:00:53.068Z,63.79
2022-09-11T18:05:54.865Z,64.67
2022-09-11T18:10:59.636Z,65.00
2022-09-11T18:16:02.884Z,65.88
2022-09-11T18:21:06.403Z,66.85
2022-09-11T18:26:10.308Z,67.70
2022-09-11T18:31:12.018Z,68.80
2022-09-11T18:36:14.011Z,69.07
2022-09-11T18:41:15.620Z,69.08
2022-09-11T18:46:17.886Z,69.75
2022-09-11T18:51:20.427Z,70.24
2022-09-11T18:56:28.359Z,70.48
2022-09-11T19:01:32.524Z,70.91
2022-09-11T19:06:34.468Z,71.74
2022-09-11T19:11:36.731Z,71.80
2022-09-11T19:16:39.581Z,72.89
2022-09-11T19:21:41.530Z,72.97
2022-09-11T19:26:43.695Z,73.33
2022-09-11T19:31:45.937Z,73.92
2022-09-11T19:36:51.367Z,74.52
2022-09-11T19:41:52.976Z,74.96
2022-09-11T19:46:56.246Z,75.60
2022-09-11T19:51:58.271Z,75.84
2022-09-11T19:57:00.463Z,76.37
2022-09-11T20:02:02.311Z,76.43
2022-09-11T20:07:04.051Z,76.49
2022-09-11T20:12:05.792Z,76.55
2022-09-11T20:17:09.187Z,77.09
2022-09-11T20:22:10.962Z,76.75
2022-09-11T20:27:12.600Z,76.75
2022-09-11T20:32:16.787Z,77.50
2022-09-11T20:37:18.422Z,77.97
2022-09-11T20:42:20.168Z,77.86
2022-09-11T20:47:22.238Z,77.76
2022-09-11T20:52:23.852Z,78.09
2022-09-11T20:57:25.592Z,78.61
2022-09-11T21:02:27.271Z,78.57
2022-09-11T21:07:28.825Z,78.29
2022-09-11T21:12:30.386Z,78.58
2022-09-11T21:17:32.027Z,78.47
2022-09-11T21:22:33.550Z,79.38
2022-09-11T21:27:35.143Z,79.10
2022-09-11T21:32:36.717Z,79.33
2022-09-11T21:37:38.386Z,79.48
2022-09-11T21:42:39.982Z,79.49
2022-09-11T21:47:41.696Z,79.83
2022-09-11T21:52:43.351Z,79.37
2022-09-11T21:57:45.072Z,79.73
2022-09-11T22:02:47.115Z,79.86
2022-09-11T22:07:48.913Z,79.48
2022-09-11T22:12:50.877Z,79.52
2022-09-11T22:17:52.480Z,79.18
2022-09-11T22:22:56.470Z,79.40
2022-09-11T22:27:58.006Z,79.36
2022-09-11T22:33:00.124Z,79.36
2022-09-11T22:38:01.762Z,80.57
2022-09-11T22:43:03.603Z,80.27
2022-09-11T22:48:05.176Z,79.78
2022-09-11T22:53:07.785Z,80.22
2022-09-11T22:58:09.357Z,80.07
2022-09-11T23:03:11.661Z,80.78
2022-09-11T23:08:13.286Z,81.13
2022-09-11T23:13:14.926Z,81.05
2022-09-11T23:18:16.948Z,81.24
2022-09-11T23:23:20.882Z,81.27
2022-09-11T23:28:22.554Z,81.75
2022-09-11T23:33:25.337Z,81.36
2022-09-11T23:38:26.926Z,81.29
2022-09-11T23:43:28.719Z,81.76
2022-09-11T23:48:30.595Z,82.29
2022-09-11T23:53:32.481Z,82.68
2022-09-11T23:58:39.209Z,83.18
